createdAt,value
2019-05-21T00:02:45.122Z,92.99
2019-05-21T00:06:47.048Z,92.93
2019-05-21T00:10:48.942Z,92.98
2019-05-21T00:14:50.872Z,93.12
2019-05-21T00:18:52.861Z,93.27
2019-05-21T00:22:54.789Z,92.92
2019-05-21T00:26:56.697Z,92.55
2019-05-21T00:31:52.714Z,92.38
2019-05-21T00:36:49.706Z,92.53
2019-05-21T00:41:45.558Z,92.87
2019-05-21T00:45:47.460Z,92.98
2019-05-21T00:49:52.004Z,92.85
2019-05-21T00:53:53.931Z,92.57
2019-05-21T00:57:55.830Z,92.41
2019-05-21T01:01:57.743Z,92.44
2019-05-21T01:05:59.723Z,92.54
2019-05-21T01:10:01.638Z,92.35
2019-05-21T01:14:03.532Z,92.31
2019-05-21T01:18:05.469Z,92.26
2019-05-21T01:22:07.359Z,92.34
2019-05-21T01:26:09.271Z,91.96
2019-05-21T01:30:11.591Z,92.15
2019-05-21T01:34:15.327Z,92.31
2019-05-21T01:38:17.285Z,92.25
2019-05-21T01:42:19.195Z,92.16
2019-05-21T01:46:21.130Z,92.73
2019-05-21T01:50:23.005Z,92.75
2019-05-21T01:54:24.934Z,92.79
2019-05-21T01:58:27.166Z,92.47
2019-05-21T02:02:29.084Z,92.65
2019-05-21T02:06:31.000Z,92.67
2019-05-21T02:10:32.901Z,92.41
2019-05-21T02:14:35.112Z,92.72
2019-05-21T02:18:37.007Z,92.97
2019-05-21T02:22:38.960Z,93.34
2019-05-21T02:26:40.873Z,93.36
2019-05-21T02:30:45.582Z,93.15
2019-05-21T02:34:47.488Z,93.24
2019-05-21T02:38:49.391Z,93.11
2019-05-21T02:42:51.395Z,93.26
2019-05-21T02:46:53.405Z,93.51
2019-05-21T02:50:55.383Z,93.42
2019-05-21T02:54:57.286Z,93.37
2019-05-21T02:58:59.200Z,93.42
2019-05-21T03:03:05.424Z,93.71
2019-05-21T03:07:19.200Z,93.86
2019-05-21T03:11:21.106Z,93.69
2019-05-21T03:15:23.054Z,93.83
2019-05-21T03:19:24.968Z,94.16
2019-05-21T03:23:26.932Z,94.11
2019-05-21T03:27:28.858Z,94.11
2019-05-21T03:31:31.034Z,94.03
2019-05-21T03:35:32.951Z,93.82
2019-05-21T03:39:34.860Z,93.96
2019-05-21T03:43:36.773Z,94.12
2019-05-21T03:47:38.685Z,94.37
2019-05-21T03:51:40.609Z,94.55
2019-05-21T03:55:42.525Z,94.56
2019-05-21T03:59:44.512Z,94.44
2019-05-21T04:03:46.477Z,94.31
2019-05-21T04:07:49.375Z,94.00
2019-05-21T04:11:53.286Z,93.91
2019-05-21T04:15:59.439Z,93.90
2019-05-21T04:20:02.336Z,93.69
2019-05-21T04:24:08.487Z,93.58
2019-05-21T04:28:08.019Z,93.53
2019-05-21T04:32:10.213Z,93.48
2019-05-21T04:36:12.768Z,93.31
2019-05-21T04:40:15.404Z,92.99
2019-05-21T04:44:17.307Z,93.26
2019-05-21T04:48:19.299Z,93.65
2019-05-21T04:52:21.207Z,93.71
2019-05-21T04:56:23.102Z,93.14
2019-05-21T05:00:25.074Z,93.26
2019-05-21T05:04:26.971Z,93.63
2019-05-21T05:08:28.878Z,93.87
2019-05-21T05:12:30.772Z,93.96
2019-05-21T05:16:32.684Z,93.56
2019-05-21T05:20:34.651Z,93.48
2019-05-21T05:24:37.202Z,93.49
2019-05-21T05:28:39.239Z,93.36
2019-05-21T05:32:41.332Z,93.07
2019-05-21T05:36:43.252Z,92.93
2019-05-21T05:40:45.141Z,92.78
2019-05-21T05:44:47.732Z,92.65
2019-05-21T05:48:51.373Z,93.03
2019-05-21T05:52:53.272Z,93.04
2019-05-21T05:56:55.199Z,92.57
2019-05-21T06:00:57.199Z,92.21
2019-05-21T06:04:59.149Z,92.04
2019-05-21T06:09:01.570Z,92.42
2019-05-21T06:13:05.036Z,92.58
2019-05-21T06:17:07.267Z,92.04
2019-05-21T06:21:09.245Z,92.34
2019-05-21T06:25:12.078Z,92.17
2019-05-21T06:29:13.988Z,91.96
2019-05-21T06:33:15.915Z,91.86
2019-05-21T06:37:17.840Z,91.61
2019-05-21T06:41:19.757Z,91.71
2019-05-21T06:45:23.243Z,91.39
2019-05-21T06:49:25.254Z,91.58
2019-05-21T06:53:27.980Z,91.33
2019-05-21T06:57:29.935Z,90.70
2019-05-21T07:01:31.893Z,90.00
2019-05-21T07:05:33.849Z,90.71
2019-05-21T07:09:35.746Z,90.50
2019-05-21T07:13:37.659Z,91.18
2019-05-21T07:17:39.561Z,90.92
2019-05-21T07:21:41.501Z,90.95
2019-05-21T07:25:43.478Z,91.03
2019-05-21T07:29:45.392Z,90.12
2019-05-21T07:33:47.306Z,90.09
2019-05-21T07:37:49.216Z,89.37
2019-05-21T07:41:51.121Z,90.18
2019-05-21T07:45:53.688Z,90.65
2019-05-21T07:49:55.611Z,89.63
2019-05-21T07:53:57.530Z,89.18
2019-05-21T07:57:59.456Z,89.86
2019-05-21T08:02:01.442Z,89.67
2019-05-21T08:06:03.385Z,89.79
2019-05-21T08:10:08.276Z,90.50
2019-05-21T08:14:11.423Z,90.46
2019-05-21T08:18:13.319Z,90.66
2019-05-21T08:22:15.233Z,90.33
2019-05-21T08:26:17.160Z,90.11
2019-05-21T08:30:19.678Z,89.95
2019-05-21T08:34:21.602Z,90.18
2019-05-21T08:38:23.506Z,90.38
2019-05-21T08:42:25.499Z,90.38
2019-05-21T08:46:27.575Z,89.64
2019-05-21T08:50:29.482Z,88.51
2019-05-21T08:54:49.364Z,89.46
2019-05-21T08:58:51.351Z,88.12
2019-05-21T09:02:53.252Z,86.89
2019-05-21T09:06:55.249Z,87.43
2019-05-21T09:10:57.157Z,87.70
2019-05-21T09:14:59.165Z,87.24
2019-05-21T09:19:01.397Z,87.50
2019-05-21T09:23:03.299Z,86.68
2019-05-21T09:27:05.339Z,87.32
2019-05-21T09:31:07.243Z,87.83
2019-05-21T09:35:10.960Z,86.11
2019-05-21T09:39:12.874Z,86.03
2019-05-21T09:43:14.808Z,85.71
2019-05-21T09:47:16.715Z,87.30
2019-05-21T09:51:20.050Z,87.22
2019-05-21T09:55:22.358Z,86.43
2019-05-21T09:59:33.196Z,86.08
2019-05-21T10:03:39.409Z,85.93
2019-05-21T10:07:41.318Z,85.44
2019-05-21T10:11:43.226Z,85.48
2019-05-21T10:15:45.152Z,85.34
2019-05-21T10:19:47.167Z,83.29
2019-05-21T10:23:49.563Z,83.10
2019-05-21T10:27:51.460Z,81.98
2019-05-21T10:31:53.952Z,80.07
2019-05-21T10:35:57.374Z,80.25
2019-05-21T10:39:59.300Z,81.81
2019-05-21T10:44:01.427Z,83.13
2019-05-21T10:48:03.388Z,81.77
2019-05-21T10:52:05.690Z,80.28
2019-05-21T10:56:07.573Z,78.04
2019-05-21T11:00:16.955Z,77.62
2019-05-21T11:04:20.509Z,78.77
2019-05-21T11:08:24.400Z,77.87
2019-05-21T11:12:26.354Z,76.32
2019-05-21T11:16:28.324Z,78.24
2019-05-21T11:20:30.251Z,78.35
2019-05-21T11:24:32.142Z,78.13
2019-05-21T11:28:34.071Z,78.78
2019-05-21T11:32:36.043Z,79.75
2019-05-21T11:36:37.969Z,80.03
2019-05-21T11:40:39.936Z,80.78
2019-05-21T11:44:41.867Z,81.53
2019-05-21T11:48:43.778Z,81.66
2019-05-21T11:52:45.859Z,81.96
2019-05-21T11:56:47.766Z,82.75
2019-05-21T12:00:49.944Z,82.62
2019-05-21T12:04:51.847Z,82.58
2019-05-21T12:08:56.995Z,82.31
2019-05-21T12:12:57.454Z,82.31
2019-05-21T12:16:59.371Z,82.38
2019-05-21T12:21:01.646Z,82.06
2019-05-21T12:25:03.851Z,81.52
2019-05-21T12:29:05.821Z,81.63
2019-05-21T12:33:07.731Z,81.45
2019-05-21T12:37:09.737Z,80.13
2019-05-21T12:41:13.783Z,80.65
2019-05-21T12:45:15.328Z,78.60
2019-05-21T12:49:17.238Z,77.93
2019-05-21T12:53:19.178Z,77.76
2019-05-21T12:57:21.093Z,76.14
2019-05-21T13:01:23.073Z,75.57
2019-05-21T13:05:25.100Z,75.46
2019-05-21T13:09:32.594Z,74.68
2019-05-21T13:13:30.671Z,73.14
2019-05-21T13:17:32.583Z,73.07
2019-05-21T13:21:34.501Z,70.82
2019-05-21T13:25:37.449Z,70.55
2019-05-21T13:29:39.388Z,65.53
2019-05-21T13:33:41.287Z,64.35
2019-05-21T13:37:43.242Z,63.66
2019-05-21T13:41:46.095Z,62.73
2019-05-21T13:45:48.007Z,65.86
2019-05-21T13:49:49.925Z,66.79
2019-05-21T13:53:51.959Z,67.83
2019-05-21T13:57:54.038Z,68.29
2019-05-21T14:01:55.963Z,70.44
2019-05-21T14:05:57.848Z,72.53
2019-05-21T14:10:14.203Z,75.00
2019-05-21T14:14:03.402Z,75.13
2019-05-21T14:18:05.384Z,76.18
2019-05-21T14:22:07.960Z,76.45
2019-05-21T14:26:09.934Z,77.19
2019-05-21T14:30:12.881Z,75.38
2019-05-21T14:34:14.814Z,75.72
2019-05-21T14:38:16.747Z,76.16
2019-05-21T14:42:18.667Z,76.08
2019-05-21T14:46:20.568Z,77.07
2019-05-21T14:50:22.789Z,77.42
2019-05-21T14:54:27.015Z,79.08
2019-05-21T14:58:28.303Z,80.38
2019-05-21T15:02:30.243Z,80.52
2019-05-21T15:06:32.170Z,80.38
2019-05-21T15:10:47.162Z,80.65
2019-05-21T15:14:38.112Z,80.89
2019-05-21T15:18:39.968Z,80.93
2019-05-21T15:22:41.935Z,81.18
2019-05-21T15:26:43.840Z,80.95
2019-05-21T15:30:46.534Z,80.34
2019-05-21T15:34:48.438Z,78.63
2019-05-21T15:38:51.282Z,78.59
2019-05-21T15:42:53.853Z,78.95
2019-05-21T15:46:55.949Z,79.08
2019-05-21T15:50:57.854Z,78.64
2019-05-21T15:54:59.889Z,80.02
2019-05-21T15:59:01.812Z,81.48
2019-05-21T16:03:03.712Z,82.24
2019-05-21T16:07:05.870Z,82.24
2019-05-21T16:11:08.175Z,83.34
2019-05-21T16:15:10.236Z,82.84
2019-05-21T16:19:12.132Z,81.99
2019-05-21T16:23:14.125Z,81.55
2019-05-21T16:27:16.034Z,82.23
2019-05-21T16:31:18.014Z,82.46
2019-05-21T16:35:20.015Z,82.84
2019-05-21T16:39:23.188Z,83.10
2019-05-21T16:43:25.170Z,84.34
2019-05-21T16:47:42.411Z,84.72
2019-05-21T16:51:30.945Z,84.58
2019-05-21T16:55:34.996Z,85.07
2019-05-21T16:59:36.984Z,85.42
2019-05-21T17:03:39.869Z,85.86
2019-05-21T17:07:41.766Z,86.20
2019-05-21T17:11:57.570Z,86.81
2019-05-21T17:15:47.533Z,86.88
2019-05-21T17:19:49.478Z,87.48
2019-05-21T17:23:51.414Z,87.74
2019-05-21T17:27:53.467Z,87.98
2019-05-21T17:31:55.404Z,88.53
2019-05-21T17:35:57.420Z,89.04
2019-05-21T17:39:59.327Z,90.07
2019-05-21T17:44:01.454Z,89.61
2019-05-21T17:48:03.611Z,89.72
2019-05-21T17:52:05.687Z,89.07
2019-05-21T17:56:07.942Z,88.43
2019-05-21T18:00:11.878Z,88.14
2019-05-21T18:04:14.222Z,88.68
2019-05-21T18:08:17.204Z,88.44
2019-05-21T18:12:31.554Z,88.09
2019-05-21T18:16:24.627Z,88.72
2019-05-21T18:20:27.194Z,88.65
2019-05-21T18:24:29.676Z,89.09
2019-05-21T18:28:31.856Z,89.19
2019-05-21T18:32:34.053Z,90.50
2019-05-21T18:36:36.220Z,90.38
2019-05-21T18:40:38.325Z,90.21
2019-05-21T18:44:40.514Z,90.87
2019-05-21T18:48:42.972Z,90.99
2019-05-21T18:52:44.889Z,91.25
2019-05-21T18:56:46.857Z,90.77
2019-05-21T19:00:49.040Z,90.91
2019-05-21T19:04:51.001Z,90.75
2019-05-21T19:08:52.974Z,90.96
2019-05-21T19:12:55.162Z,91.37
2019-05-21T19:16:57.065Z,91.76
2019-05-21T19:20:58.972Z,91.63
2019-05-21T19:25:01.582Z,91.97
2019-05-21T19:29:07.394Z,91.57
2019-05-21T19:33:08.255Z,91.26
2019-05-21T19:37:10.153Z,91.19
2019-05-21T19:41:12.181Z,91.17
2019-05-21T19:45:16.987Z,90.89
2019-05-21T19:49:19.053Z,90.56
2019-05-21T19:53:22.842Z,90.51
2019-05-21T19:57:26.607Z,90.54
2019-05-21T20:01:29.232Z,90.73
2019-05-21T20:05:31.509Z,90.23
2019-05-21T20:09:33.453Z,90.21
2019-05-21T20:13:35.367Z,90.74
2019-05-21T20:17:38.782Z,90.79
2019-05-21T20:21:41.482Z,91.02
2019-05-21T20:25:56.010Z,91.55
2019-05-21T20:29:48.004Z,91.57
2019-05-21T20:33:50.183Z,91.94
2019-05-21T20:37:52.557Z,91.71
2019-05-21T20:41:55.147Z,91.70
2019-05-21T20:45:57.906Z,91.81
2019-05-21T20:50:00.169Z,91.73
2019-05-21T20:54:04.857Z,91.44
2019-05-21T20:58:08.676Z,90.92
2019-05-21T21:02:11.731Z,91.41
2019-05-21T21:06:14.558Z,90.71
2019-05-21T21:10:17.522Z,91.20
2019-05-21T21:14:20.986Z,91.68
2019-05-21T21:18:22.910Z,91.29
2019-05-21T21:22:25.844Z,91.37
2019-05-21T21:26:29.083Z,91.63
2019-05-21T21:30:32.753Z,91.28
2019-05-21T21:34:34.853Z,91.12
2019-05-21T21:38:37.617Z,91.39
2019-05-21T21:42:41.101Z,91.47
2019-05-21T21:46:42.974Z,91.58
2019-05-21T21:50:45.339Z,91.59
2019-05-21T21:54:47.857Z,91.88
2019-05-21T21:58:50.447Z,91.94
2019-05-21T22:02:52.599Z,92.00
2019-05-21T22:06:55.926Z,92.30
2019-05-21T22:10:58.267Z,91.80
2019-05-21T22:15:00.815Z,91.68
2019-05-21T22:19:02.806Z,92.00
2019-05-21T22:23:05.726Z,92.02
2019-05-21T22:27:08.298Z,92.22
2019-05-21T22:31:10.437Z,92.10
2019-05-21T22:35:13.346Z,92.14
2019-05-21T22:39:19.938Z,92.15
2019-05-21T22:43:22.134Z,92.30
2019-05-21T22:47:24.047Z,92.32
2019-05-21T22:51:26.180Z,92.29
2019-05-21T22:55:28.110Z,92.27
2019-05-21T22:59:30.097Z,92.50
2019-05-21T23:03:32.523Z,92.47
2019-05-21T23:07:35.317Z,92.63
2019-05-21T23:11:37.580Z,92.51
2019-05-21T23:15:39.677Z,92.70
2019-05-21T23:20:02.304Z,92.44
2019-05-21T23:24:08.389Z,92.38
2019-05-21T23:28:10.587Z,92.42
2019-05-21T23:32:12.832Z,92.04
2019-05-21T23:36:15.539Z,92.39
2019-05-21T23:40:17.702Z,92.70
2019-05-21T23:44:20.591Z,92.61
2019-05-21T23:48:23.048Z,92.82
2019-05-21T23:52:26.105Z,92.73
2019-05-21T23:56:28.026Z,92.65
